sensor_id;sensor_type;location;lat;lon;timestamp;P1;durP1;ratioP1;P2;durP2;ratioP2
48088;SDS011;33867;50.314;7.802;2023-06-10T00:02:08;0.38;;;0.38;;
48088;SDS011;33867;50.314;7.802;2023-06-10T00:05:27;0.13;;;0.13;;
48088;SDS011;33867;50.314;7.802;2023-06-10T00:08:48;0.08;;;0.08;;
48088;SDS011;33867;50.314;7.802;2023-06-10T00:12:07;0.10;;;0.10;;
48088;SDS011;33867;50.314;7.802;2023-06-10T00:15:28;0.10;;;0.10;;
48088;SDS011;33867;50.314;7.802;2023-06-10T00:18:48;0.00;;;0.00;;
48088;SDS011;33867;50.314;7.802;2023-06-10T00:22:10;0.03;;;0.03;;
48088;SDS011;33867;50.314;7.802;2023-06-10T00:25:29;0.10;;;0.10;;
48088;SDS011;33867;50.314;7.802;2023-06-10T00:28:48;0.10;;;0.10;;
48088;SDS011;33867;50.314;7.802;2023-06-10T00:32:08;0.00;;;0.00;;
48088;SDS011;33867;50.314;7.802;2023-06-10T00:35:27;0.20;;;0.10;;
48088;SDS011;33867;50.314;7.802;2023-06-10T00:38:47;0.05;;;0.05;;
48088;SDS011;33867;50.314;7.802;2023-06-10T00:42:06;0.10;;;0.10;;
48088;SDS011;33867;50.314;7.802;2023-06-10T00:45:26;0.05;;;0.05;;
48088;SDS011;33867;50.314;7.802;2023-06-10T00:48:45;0.28;;;0.28;;
48088;SDS011;33867;50.314;7.802;2023-06-10T00:52:05;0.73;;;0.30;;
48088;SDS011;33867;50.314;7.802;2023-06-10T00:55:26;0.10;;;0.10;;
48088;SDS011;33867;50.314;7.802;2023-06-10T00:58:45;0.10;;;0.10;;
48088;SDS011;33867;50.314;7.802;2023-06-10T01:02:06;0.10;;;0.10;;
48088;SDS011;33867;50.314;7.802;2023-06-10T01:05:26;0.00;;;0.00;;
48088;SDS011;33867;50.314;7.802;2023-06-10T01:12:21;0.10;;;0.10;;
48088;SDS011;33867;50.314;7.802;2023-06-10T01:15:51;0.15;;;0.15;;
48088;SDS011;33867;50.314;7.802;2023-06-10T01:19:11;0.10;;;0.10;;
48088;SDS011;33867;50.314;7.802;2023-06-10T01:22:31;0.10;;;0.10;;
48088;SDS011;33867;50.314;7.802;2023-06-10T01:25:53;0.15;;;0.15;;
48088;SDS011;33867;50.314;7.802;2023-06-10T01:29:19;0.10;;;0.10;;
48088;SDS011;33867;50.314;7.802;2023-06-10T01:32:45;0.00;;;0.00;;
48088;SDS011;33867;50.314;7.802;2023-06-10T01:36:08;0.10;;;0.10;;
48088;SDS011;33867;50.314;7.802;2023-06-10T01:39:28;0.00;;;0.00;;
48088;SDS011;33867;50.314;7.802;2023-06-10T01:42:49;0.10;;;0.10;;
48088;SDS011;33867;50.314;7.802;2023-06-10T01:46:08;0.25;;;0.20;;
48088;SDS011;33867;50.314;7.802;2023-06-10T01:49:27;0.10;;;0.10;;
48088;SDS011;33867;50.314;7.802;2023-06-10T01:52:47;0.10;;;0.10;;
48088;SDS011;33867;50.314;7.802;2023-06-10T01:56:12;0.10;;;0.10;;
48088;SDS011;33867;50.314;7.802;2023-06-10T01:59:36;0.22;;;0.10;;
48088;SDS011;33867;50.314;7.802;2023-06-10T02:02:56;0.00;;;0.00;;
48088;SDS011;33867;50.314;7.802;2023-06-10T02:06:15;0.10;;;0.10;;
48088;SDS011;33867;50.314;7.802;2023-06-10T02:09:34;0.30;;;0.20;;
48088;SDS011;33867;50.314;7.802;2023-06-10T02:12:53;0.10;;;0.10;;
48088;SDS011;33867;50.314;7.802;2023-06-10T02:16:13;0.08;;;0.08;;
48088;SDS011;33867;50.314;7.802;2023-06-10T02:19:35;0.10;;;0.10;;
48088;SDS011;33867;50.314;7.802;2023-06-10T02:22:55;0.05;;;0.05;;
48088;SDS011;33867;50.314;7.802;2023-06-10T02:26:14;0.00;;;0.00;;
48088;SDS011;33867;50.314;7.802;2023-06-10T02:29:33;0.00;;;0.00;;
48088;SDS011;33867;50.314;7.802;2023-06-10T02:32:54;0.00;;;0.00;;
48088;SDS011;33867;50.314;7.802;2023-06-10T02:36:14;0.10;;;0.10;;
48088;SDS011;33867;50.314;7.802;2023-06-10T02:39:34;0.10;;;0.10;;
48088;SDS011;33867;50.314;7.802;2023-06-10T02:42:55;0.10;;;0.10;;
48088;SDS011;33867;50.314;7.802;2023-06-10T02:46:14;0.10;;;0.10;;
48088;SDS011;33867;50.314;7.802;2023-06-10T02:49:34;0.10;;;0.10;;
48088;SDS011;33867;50.314;7.802;2023-06-10T02:52:54;0.00;;;0.00;;
48088;SDS011;33867;50.314;7.802;2023-06-10T02:56:15;0.08;;;0.08;;
48088;SDS011;33867;50.314;7.802;2023-06-10T02:59:35;0.15;;;0.15;;
48088;SDS011;33867;50.314;7.802;2023-06-10T03:02:55;0.00;;;0.00;;
48088;SDS011;33867;50.314;7.802;2023-06-10T03:06:19;0.00;;;0.00;;
48088;SDS011;33867;50.314;7.802;2023-06-10T03:09:38;0.00;;;0.00;;
48088;SDS011;33867;50.314;7.802;2023-06-10T03:12:59;0.05;;;0.05;;
48088;SDS011;33867;50.314;7.802;2023-06-10T03:16:19;0.32;;;0.20;;
48088;SDS011;33867;50.314;7.802;2023-06-10T03:19:39;0.10;;;0.10;;
48088;SDS011;33867;50.314;7.802;2023-06-10T03:22:58;0.00;;;0.00;;
48088;SDS011;33867;50.314;7.802;2023-06-10T03:26:17;0.10;;;0.10;;
48088;SDS011;33867;50.314;7.802;2023-06-10T03:29:39;0.00;;;0.00;;
48088;SDS011;33867;50.314;7.802;2023-06-10T03:32:59;0.10;;;0.10;;
48088;SDS011;33867;50.314;7.802;2023-06-10T03:36:20;0.10;;;0.10;;
48088;SDS011;33867;50.314;7.802;2023-06-10T03:39:40;0.13;;;0.13;;
48088;SDS011;33867;50.314;7.802;2023-06-10T03:43:00;0.10;;;0.10;;
48088;SDS011;33867;50.314;7.802;2023-06-10T03:46:19;0.10;;;0.10;;
48088;SDS011;33867;50.314;7.802;2023-06-10T03:49:38;0.10;;;0.10;;
48088;SDS011;33867;50.314;7.802;2023-06-10T03:52:59;0.10;;;0.10;;
48088;SDS011;33867;50.314;7.802;2023-06-10T03:56:19;0.00;;;0.00;;
48088;SDS011;33867;50.314;7.802;2023-06-10T03:59:38;0.10;;;0.10;;
48088;SDS011;33867;50.314;7.802;2023-06-10T04:02:57;0.25;;;0.25;;
48088;SDS011;33867;50.314;7.802;2023-06-10T04:06:29;0.20;;;0.20;;
48088;SDS011;33867;50.314;7.802;2023-06-10T04:09:48;0.20;;;0.20;;
48088;SDS011;33867;50.314;7.802;2023-06-10T04:13:07;0.17;;;0.17;;
48088;SDS011;33867;50.314;7.802;2023-06-10T04:16:33;0.10;;;0.10;;
48088;SDS011;33867;50.314;7.802;2023-06-10T04:19:53;0.03;;;0.03;;
48088;SDS011;33867;50.314;7.802;2023-06-10T04:23:14;0.00;;;0.00;;
48088;SDS011;33867;50.314;7.802;2023-06-10T04:26:35;0.00;;;0.00;;
48088;SDS011;33867;50.314;7.802;2023-06-10T04:29:56;0.25;;;0.10;;
48088;SDS011;33867;50.314;7.802;2023-06-10T04:33:15;0.00;;;0.00;;
48088;SDS011;33867;50.314;7.802;2023-06-10T04:36:35;0.10;;;0.10;;
48088;SDS011;33867;50.314;7.802;2023-06-10T04:39:54;0.20;;;0.20;;
48088;SDS011;33867;50.314;7.802;2023-06-10T04:43:13;0.30;;;0.20;;
48088;SDS011;33867;50.314;7.802;2023-06-10T04:46:32;0.00;;;0.00;;
48088;SDS011;33867;50.314;7.802;2023-06-10T04:49:52;0.10;;;0.10;;
48088;SDS011;33867;50.314;7.802;2023-06-10T04:53:11;0.10;;;0.10;;
48088;SDS011;33867;50.314;7.802;2023-06-10T04:56:33;0.10;;;0.10;;
48088;SDS011;33867;50.314;7.802;2023-06-10T04:59:53;0.03;;;0.03;;
48088;SDS011;33867;50.314;7.802;2023-06-10T05:03:12;0.17;;;0.17;;
48088;SDS011;33867;50.314;7.802;2023-06-10T05:06:30;0.00;;;0.00;;
48088;SDS011;33867;50.314;7.802;2023-06-10T05:09:50;0.10;;;0.10;;
48088;SDS011;33867;50.314;7.802;2023-06-10T05:13:09;0.28;;;0.28;;
48088;SDS011;33867;50.314;7.802;2023-06-10T05:16:28;0.20;;;0.20;;
48088;SDS011;33867;50.314;7.802;2023-06-10T05:19:47;0.10;;;0.10;;
48088;SDS011;33867;50.314;7.802;2023-06-10T05:23:07;0.10;;;0.10;;
48088;SDS011;33867;50.314;7.802;2023-06-10T05:26:26;0.10;;;0.10;;
48088;SDS011;33867;50.314;7.802;2023-06-10T05:29:45;0.10;;;0.10;;
48088;SDS011;33867;50.314;7.802;2023-06-10T05:33:04;0.30;;;0.30;;
48088;SDS011;33867;50.314;7.802;2023-06-10T05:36:23;0.10;;;0.10;;
48088;SDS011;33867;50.314;7.802;2023-06-10T05:39:46;0.10;;;0.10;;
48088;SDS011;33867;50.314;7.802;2023-06-10T05:43:05;0.00;;;0.00;;
48088;SDS011;33867;50.314;7.802;2023-06-10T05:46:24;0.00;;;0.00;;
48088;SDS011;33867;50.314;7.802;2023-06-10T05:49:43;0.10;;;0.10;;
48088;SDS011;33867;50.314;7.802;2023-06-10T05:53:04;0.10;;;0.10;;
48088;SDS011;33867;50.314;7.802;2023-06-10T05:56:25;0.05;;;0.05;;
48088;SDS011;33867;50.314;7.802;2023-06-10T05:59:44;0.05;;;0.05;;
48088;SDS011;33867;50.314;7.802;2023-06-10T06:03:05;0.70;;;0.20;;
48088;SDS011;33867;50.314;7.802;2023-06-10T06:06:26;0.10;;;0.10;;
48088;SDS011;33867;50.314;7.802;2023-06-10T06:09:45;0.20;;;0.20;;
48088;SDS011;33867;50.314;7.802;2023-06-10T06:13:05;0.50;;;0.25;;
48088;SDS011;33867;50.314;7.802;2023-06-10T06:16:25;0.30;;;0.30;;
48088;SDS011;33867;50.314;7.802;2023-06-10T06:19:44;0.22;;;0.22;;
48088;SDS011;33867;50.314;7.802;2023-06-10T06:23:04;0.35;;;0.30;;
48088;SDS011;33867;50.314;7.802;2023-06-10T06:26:22;0.82;;;0.60;;
48088;SDS011;33867;50.314;7.802;2023-06-10T06:29:41;0.30;;;0.30;;
48088;SDS011;33867;50.314;7.802;2023-06-10T06:33:01;0.50;;;0.47;;
48088;SDS011;33867;50.314;7.802;2023-06-10T06:36:20;0.95;;;0.52;;
48088;SDS011;33867;50.314;7.802;2023-06-10T06:39:39;0.50;;;0.45;;
48088;SDS011;33867;50.314;7.802;2023-06-10T06:42:59;0.70;;;0.43;;
48088;SDS011;33867;50.314;7.802;2023-06-10T06:46:37;0.70;;;0.50;;
48088;SDS011;33867;50.314;7.802;2023-06-10T06:49:56;2.38;;;0.50;;
48088;SDS011;33867;50.314;7.802;2023-06-10T06:53:15;0.40;;;0.35;;
48088;SDS011;33867;50.314;7.802;2023-06-10T06:56:34;0.43;;;0.43;;
48088;SDS011;33867;50.314;7.802;2023-06-10T06:59:53;0.82;;;0.50;;
48088;SDS011;33867;50.314;7.802;2023-06-10T07:03:12;0.95;;;0.70;;
48088;SDS011;33867;50.314;7.802;2023-06-10T07:06:31;1.02;;;0.82;;
48088;SDS011;33867;50.314;7.802;2023-06-10T07:09:51;0.70;;;0.60;;
48088;SDS011;33867;50.314;7.802;2023-06-10T07:13:10;0.52;;;0.47;;
48088;SDS011;33867;50.314;7.802;2023-06-10T07:16:30;0.57;;;0.55;;
48088;SDS011;33867;50.314;7.802;2023-06-10T07:19:49;0.38;;;0.38;;
48088;SDS011;33867;50.314;7.802;2023-06-10T07:23:10;0.82;;;0.73;;
48088;SDS011;33867;50.314;7.802;2023-06-10T07:26:29;1.00;;;0.63;;
48088;SDS011;33867;50.314;7.802;2023-06-10T07:29:48;0.77;;;0.50;;
48088;SDS011;33867;50.314;7.802;2023-06-10T07:33:07;1.02;;;0.88;;
48088;SDS011;33867;50.314;7.802;2023-06-10T07:36:26;0.88;;;0.65;;
48088;SDS011;33867;50.314;7.802;2023-06-10T07:39:47;0.75;;;0.60;;
48088;SDS011;33867;50.314;7.802;2023-06-10T07:43:06;0.80;;;0.73;;
48088;SDS011;33867;50.314;7.802;2023-06-10T07:46:25;0.40;;;0.40;;
48088;SDS011;33867;50.314;7.802;2023-06-10T07:49:45;0.82;;;0.73;;
48088;SDS011;33867;50.314;7.802;2023-06-10T07:53:05;0.70;;;0.60;;
48088;SDS011;33867;50.314;7.802;2023-06-10T07:56:23;1.08;;;0.75;;
48088;SDS011;33867;50.314;7.802;2023-06-10T07:59:44;2.08;;;0.52;;
48088;SDS011;33867;50.314;7.802;2023-06-10T08:03:03;0.82;;;0.70;;
48088;SDS011;33867;50.314;7.802;2023-06-10T08:06:22;0.82;;;0.70;;
48088;SDS011;33867;50.314;7.802;2023-06-10T08:09:41;0.80;;;0.73;;
48088;SDS011;33867;50.314;7.802;2023-06-10T08:13:00;0.50;;;0.50;;
48088;SDS011;33867;50.314;7.802;2023-06-10T08:16:19;0.82;;;0.77;;
48088;SDS011;33867;50.314;7.802;2023-06-10T08:19:39;0.63;;;0.45;;
48088;SDS011;33867;50.314;7.802;2023-06-10T08:22:57;0.98;;;0.70;;
48088;SDS011;33867;50.314;7.802;2023-06-10T08:26:16;0.77;;;0.65;;
48088;SDS011;33867;50.314;7.802;2023-06-10T08:29:36;1.08;;;0.80;;
48088;SDS011;33867;50.314;7.802;2023-06-10T08:32:55;0.93;;;0.70;;
48088;SDS011;33867;50.314;7.802;2023-06-10T08:36:14;1.30;;;0.70;;
48088;SDS011;33867;50.314;7.802;2023-06-10T08:39:33;1.05;;;0.73;;
48088;SDS011;33867;50.314;7.802;2023-06-10T08:42:54;0.90;;;0.60;;
48088;SDS011;33867;50.314;7.802;2023-06-10T08:46:27;1.02;;;0.70;;
48088;SDS011;33867;50.314;7.802;2023-06-10T08:49:50;1.10;;;0.75;;
48088;SDS011;33867;50.314;7.802;2023-06-10T08:53:11;1.08;;;0.70;;
48088;SDS011;33867;50.314;7.802;2023-06-10T08:56:37;0.77;;;0.63;;
48088;SDS011;33867;50.314;7.802;2023-06-10T08:59:58;1.02;;;0.70;;
48088;SDS011;33867;50.314;7.802;2023-06-10T09:03:17;0.95;;;0.68;;
48088;SDS011;33867;50.314;7.802;2023-06-10T09:06:36;0.80;;;0.70;;
48088;SDS011;33867;50.314;7.802;2023-06-10T09:09:56;0.60;;;0.40;;
48088;SDS011;33867;50.314;7.802;2023-06-10T09:13:16;1.48;;;0.80;;
48088;SDS011;33867;50.314;7.802;2023-06-10T09:16:37;1.20;;;0.70;;
48088;SDS011;33867;50.314;7.802;2023-06-10T09:19:57;1.80;;;0.80;;
48088;SDS011;33867;50.314;7.802;2023-06-10T09:23:18;0.80;;;0.65;;
48088;SDS011;33867;50.314;7.802;2023-06-10T09:26:37;1.50;;;0.98;;
48088;SDS011;33867;50.314;7.802;2023-06-10T09:29:58;0.88;;;0.75;;
48088;SDS011;33867;50.314;7.802;2023-06-10T09:33:17;0.73;;;0.63;;
48088;SDS011;33867;50.314;7.802;2023-06-10T09:36:37;0.60;;;0.45;;
48088;SDS011;33867;50.314;7.802;2023-06-10T09:40:06;1.85;;;0.80;;
48088;SDS011;33867;50.314;7.802;2023-06-10T09:43:40;1.10;;;0.80;;
48088;SDS011;33867;50.314;7.802;2023-06-10T09:47:01;1.30;;;0.60;;
48088;SDS011;33867;50.314;7.802;2023-06-10T09:50:20;0.73;;;0.60;;
48088;SDS011;33867;50.314;7.802;2023-06-10T09:53:40;0.60;;;0.60;;
48088;SDS011;33867;50.314;7.802;2023-06-10T09:56:59;1.20;;;0.52;;
48088;SDS011;33867;50.314;7.802;2023-06-10T10:00:27;0.70;;;0.60;;
48088;SDS011;33867;50.314;7.802;2023-06-10T10:03:47;0.70;;;0.65;;
48088;SDS011;33867;50.314;7.802;2023-06-10T10:07:08;0.95;;;0.70;;
48088;SDS011;33867;50.314;7.802;2023-06-10T10:10:28;0.52;;;0.52;;
48088;SDS011;33867;50.314;7.802;2023-06-10T10:13:48;1.15;;;0.88;;
48088;SDS011;33867;50.314;7.802;2023-06-10T10:17:10;0.50;;;0.50;;
48088;SDS011;33867;50.314;7.802;2023-06-10T10:20:33;1.08;;;0.70;;
48088;SDS011;33867;50.314;7.802;2023-06-10T10:31:15;1.10;;;0.70;;
48088;SDS011;33867;50.314;7.802;2023-06-10T10:38:26;0.63;;;0.50;;
48088;SDS011;33867;50.314;7.802;2023-06-10T10:41:46;1.17;;;0.93;;
48088;SDS011;33867;50.314;7.802;2023-06-10T10:45:08;0.68;;;0.50;;
48088;SDS011;33867;50.314;7.802;2023-06-10T10:48:37;0.80;;;0.63;;
48088;SDS011;33867;50.314;7.802;2023-06-10T10:52:08;1.42;;;0.82;;
48088;SDS011;33867;50.314;7.802;2023-06-10T10:55:30;1.08;;;0.70;;
48088;SDS011;33867;50.314;7.802;2023-06-10T10:59:03;1.05;;;0.63;;
48088;SDS011;33867;50.314;7.802;2023-06-10T11:05:54;0.90;;;0.57;;
48088;SDS011;33867;50.314;7.802;2023-06-10T11:09:32;0.95;;;0.80;;
48088;SDS011;33867;50.314;7.802;2023-06-10T11:12:51;0.90;;;0.65;;
48088;SDS011;33867;50.314;7.802;2023-06-10T11:16:19;0.70;;;0.43;;
48088;SDS011;33867;50.314;7.802;2023-06-10T11:19:45;0.98;;;0.75;;
48088;SDS011;33867;50.314;7.802;2023-06-10T11:23:24;0.50;;;0.50;;
48088;SDS011;33867;50.314;7.802;2023-06-10T11:26:46;0.70;;;0.55;;
48088;SDS011;33867;50.314;7.802;2023-06-10T11:33:26;0.80;;;0.70;;
48088;SDS011;33867;50.314;7.802;2023-06-10T11:36:46;1.42;;;0.80;;
48088;SDS011;33867;50.314;7.802;2023-06-10T11:40:06;0.77;;;0.60;;
48088;SDS011;33867;50.314;7.802;2023-06-10T11:43:28;0.47;;;0.47;;
48088;SDS011;33867;50.314;7.802;2023-06-10T11:46:49;1.33;;;0.90;;
48088;SDS011;33867;50.314;7.802;2023-06-10T11:50:09;1.02;;;0.80;;
48088;SDS011;33867;50.314;7.802;2023-06-10T11:53:28;0.98;;;0.68;;
48088;SDS011;33867;50.314;7.802;2023-06-10T11:56:47;1.27;;;0.80;;
48088;SDS011;33867;50.314;7.802;2023-06-10T12:00:08;1.05;;;0.60;;
48088;SDS011;33867;50.314;7.802;2023-06-10T12:03:37;0.93;;;0.60;;
48088;SDS011;33867;50.314;7.802;2023-06-10T12:06:56;0.70;;;0.50;;
48088;SDS011;33867;50.314;7.802;2023-06-10T12:10:16;0.70;;;0.50;;
48088;SDS011;33867;50.314;7.802;2023-06-10T12:13:35;0.93;;;0.73;;
48088;SDS011;33867;50.314;7.802;2023-06-10T12:16:54;0.88;;;0.80;;
48088;SDS011;33867;50.314;7.802;2023-06-10T12:20:26;1.23;;;0.88;;
48088;SDS011;33867;50.314;7.802;2023-06-10T12:24:03;0.60;;;0.60;;
48088;SDS011;33867;50.314;7.802;2023-06-10T12:27:26;0.63;;;0.52;;
48088;SDS011;33867;50.314;7.802;2023-06-10T12:30:48;1.17;;;0.77;;
48088;SDS011;33867;50.314;7.802;2023-06-10T12:34:14;1.70;;;0.90;;
48088;SDS011;33867;50.314;7.802;2023-06-10T12:37:34;0.60;;;0.60;;
48088;SDS011;33867;50.314;7.802;2023-06-10T12:40:54;2.50;;;0.82;;
48088;SDS011;33867;50.314;7.802;2023-06-10T12:44:33;0.75;;;0.70;;
48088;SDS011;33867;50.314;7.802;2023-06-10T12:48:03;0.65;;;0.50;;
48088;SDS011;33867;50.314;7.802;2023-06-10T12:51:27;0.80;;;0.50;;
48088;SDS011;33867;50.314;7.802;2023-06-10T12:54:46;0.47;;;0.47;;
48088;SDS011;33867;50.314;7.802;2023-06-10T12:58:06;0.80;;;0.65;;
48088;SDS011;33867;50.314;7.802;2023-06-10T13:01:30;0.60;;;0.60;;
48088;SDS011;33867;50.314;7.802;2023-06-10T13:04:50;0.43;;;0.40;;
48088;SDS011;33867;50.314;7.802;2023-06-10T13:08:21;0.70;;;0.70;;
48088;SDS011;33867;50.314;7.802;2023-06-10T13:11:40;0.80;;;0.65;;
48088;SDS011;33867;50.314;7.802;2023-06-10T13:15:03;1.00;;;0.70;;
48088;SDS011;33867;50.314;7.802;2023-06-10T13:18:43;0.63;;;0.55;;
48088;SDS011;33867;50.314;7.802;2023-06-10T13:22:03;0.80;;;0.47;;
48088;SDS011;33867;50.314;7.802;2023-06-10T13:25:32;0.40;;;0.40;;
48088;SDS011;33867;50.314;7.802;2023-06-10T13:28:54;1.23;;;0.52;;
48088;SDS011;33867;50.314;7.802;2023-06-10T13:32:16;0.55;;;0.55;;
48088;SDS011;33867;50.314;7.802;2023-06-10T13:35:36;0.30;;;0.30;;
48088;SDS011;33867;50.314;7.802;2023-06-10T13:39:10;0.95;;;0.73;;
48088;SDS011;33867;50.314;7.802;2023-06-10T13:42:53;0.63;;;0.50;;
48088;SDS011;33867;50.314;7.802;2023-06-10T13:46:16;0.77;;;0.60;;
48088;SDS011;33867;50.314;7.802;2023-06-10T13:49:43;1.02;;;0.60;;
48088;SDS011;33867;50.314;7.802;2023-06-10T13:53:05;0.55;;;0.50;;
48088;SDS011;33867;50.314;7.802;2023-06-10T13:56:25;0.77;;;0.55;;
48088;SDS011;33867;50.314;7.802;2023-06-10T13:59:44;1.25;;;0.75;;
48088;SDS011;33867;50.314;7.802;2023-06-10T14:03:03;0.85;;;0.57;;
48088;SDS011;33867;50.314;7.802;2023-06-10T14:06:22;0.70;;;0.70;;
48088;SDS011;33867;50.314;7.802;2023-06-10T14:09:41;0.88;;;0.65;;
48088;SDS011;33867;50.314;7.802;2023-06-10T14:13:03;0.73;;;0.60;;
48088;SDS011;33867;50.314;7.802;2023-06-10T14:16:22;0.50;;;0.45;;
48088;SDS011;33867;50.314;7.802;2023-06-10T14:19:41;1.83;;;0.70;;
48088;SDS011;33867;50.314;7.802;2023-06-10T14:23:01;0.52;;;0.40;;
48088;SDS011;33867;50.314;7.802;2023-06-10T14:26:21;2.05;;;0.85;;
48088;SDS011;33867;50.314;7.802;2023-06-10T14:29:40;0.52;;;0.52;;
48088;SDS011;33867;50.314;7.802;2023-06-10T14:32:59;0.98;;;0.43;;
48088;SDS011;33867;50.314;7.802;2023-06-10T14:36:18;1.42;;;0.55;;
48088;SDS011;33867;50.314;7.802;2023-06-10T14:39:38;0.50;;;0.50;;
48088;SDS011;33867;50.314;7.802;2023-06-10T14:42:57;1.05;;;0.60;;
48088;SDS011;33867;50.314;7.802;2023-06-10T14:46:16;0.80;;;0.60;;
48088;SDS011;33867;50.314;7.802;2023-06-10T14:49:35;0.63;;;0.57;;
48088;SDS011;33867;50.314;7.802;2023-06-10T14:52:54;3.05;;;0.70;;
48088;SDS011;33867;50.314;7.802;2023-06-10T14:56:13;1.05;;;0.60;;
48088;SDS011;33867;50.314;7.802;2023-06-10T15:03:26;1.40;;;0.70;;
48088;SDS011;33867;50.314;7.802;2023-06-10T15:06:50;0.90;;;0.80;;
48088;SDS011;33867;50.314;7.802;2023-06-10T15:10:11;0.98;;;0.70;;
48088;SDS011;33867;50.314;7.802;2023-06-10T15:13:43;0.70;;;0.40;;
48088;SDS011;33867;50.314;7.802;2023-06-10T15:17:04;0.70;;;0.52;;
48088;SDS011;33867;50.314;7.802;2023-06-10T15:20:23;1.23;;;0.70;;
48088;SDS011;33867;50.314;7.802;2023-06-10T15:27:29;6.15;;;0.60;;
48088;SDS011;33867;50.314;7.802;2023-06-10T15:30:49;0.57;;;0.40;;
48088;SDS011;33867;50.314;7.802;2023-06-10T15:34:21;0.70;;;0.70;;
48088;SDS011;33867;50.314;7.802;2023-06-10T15:37:40;1.30;;;0.70;;
48088;SDS011;33867;50.314;7.802;2023-06-10T15:41:12;0.60;;;0.60;;
48088;SDS011;33867;50.314;7.802;2023-06-10T15:44:33;1.30;;;0.57;;
48088;SDS011;33867;50.314;7.802;2023-06-10T15:47:53;1.13;;;0.52;;
48088;SDS011;33867;50.314;7.802;2023-06-10T15:51:12;3.00;;;0.70;;
48088;SDS011;33867;50.314;7.802;2023-06-10T15:54:30;0.70;;;0.52;;
48088;SDS011;33867;50.314;7.802;2023-06-10T15:57:50;0.52;;;0.45;;
48088;SDS011;33867;50.314;7.802;2023-06-10T16:01:10;0.35;;;0.35;;
48088;SDS011;33867;50.314;7.802;2023-06-10T16:04:30;0.60;;;0.50;;
48088;SDS011;33867;50.314;7.802;2023-06-10T16:07:49;0.50;;;0.50;;
48088;SDS011;33867;50.314;7.802;2023-06-10T16:11:10;0.40;;;0.40;;
48088;SDS011;33867;50.314;7.802;2023-06-10T16:14:29;1.00;;;0.70;;
48088;SDS011;33867;50.314;7.802;2023-06-10T16:17:47;0.40;;;0.40;;
48088;SDS011;33867;50.314;7.802;2023-06-10T16:21:07;1.52;;;0.60;;
48088;SDS011;33867;50.314;7.802;2023-06-10T16:28:11;0.75;;;0.55;;
48088;SDS011;33867;50.314;7.802;2023-06-10T16:31:31;0.60;;;0.45;;
48088;SDS011;33867;50.314;7.802;2023-06-10T16:34:50;0.63;;;0.55;;
48088;SDS011;33867;50.314;7.802;2023-06-10T16:38:11;0.57;;;0.40;;
48088;SDS011;33867;50.314;7.802;2023-06-10T16:41:30;0.55;;;0.50;;
48088;SDS011;33867;50.314;7.802;2023-06-10T16:44:49;0.50;;;0.40;;
48088;SDS011;33867;50.314;7.802;2023-06-10T16:48:08;2.13;;;0.70;;
48088;SDS011;33867;50.314;7.802;2023-06-10T16:51:27;0.70;;;0.50;;
48088;SDS011;33867;50.314;7.802;2023-06-10T16:54:46;3.00;;;0.40;;
48088;SDS011;33867;50.314;7.802;2023-06-10T16:58:05;1.02;;;0.63;;
48088;SDS011;33867;50.314;7.802;2023-06-10T17:01:24;0.40;;;0.30;;
48088;SDS011;33867;50.314;7.802;2023-06-10T17:04:44;0.50;;;0.50;;
48088;SDS011;33867;50.314;7.802;2023-06-10T17:08:03;0.77;;;0.50;;
48088;SDS011;33867;50.314;7.802;2023-06-10T17:11:22;0.45;;;0.43;;
48088;SDS011;33867;50.314;7.802;2023-06-10T17:14:42;0.52;;;0.50;;
48088;SDS011;33867;50.314;7.802;2023-06-10T17:18:01;2.17;;;0.85;;
48088;SDS011;33867;50.314;7.802;2023-06-10T17:21:20;0.60;;;0.40;;
48088;SDS011;33867;50.314;7.802;2023-06-10T17:24:39;0.55;;;0.50;;
48088;SDS011;33867;50.314;7.802;2023-06-10T17:28:00;0.40;;;0.40;;
48088;SDS011;33867;50.314;7.802;2023-06-10T17:31:19;0.52;;;0.40;;
48088;SDS011;33867;50.314;7.802;2023-06-10T17:34:38;0.38;;;0.35;;
48088;SDS011;33867;50.314;7.802;2023-06-10T17:37:57;0.47;;;0.45;;
48088;SDS011;33867;50.314;7.802;2023-06-10T17:41:16;0.43;;;0.40;;
48088;SDS011;33867;50.314;7.802;2023-06-10T17:44:35;0.47;;;0.40;;
48088;SDS011;33867;50.314;7.802;2023-06-10T17:47:54;0.73;;;0.60;;
48088;SDS011;33867;50.314;7.802;2023-06-10T17:51:14;0.50;;;0.45;;
48088;SDS011;33867;50.314;7.802;2023-06-10T17:54:34;0.90;;;0.60;;
48088;SDS011;33867;50.314;7.802;2023-06-10T17:57:54;0.20;;;0.20;;
48088;SDS011;33867;50.314;7.802;2023-06-10T18:01:13;0.80;;;0.52;;
48088;SDS011;33867;50.314;7.802;2023-06-10T18:04:32;0.70;;;0.35;;
48088;SDS011;33867;50.314;7.802;2023-06-10T18:07:51;0.50;;;0.40;;
48088;SDS011;33867;50.314;7.802;2023-06-10T18:11:11;1.52;;;0.52;;
48088;SDS011;33867;50.314;7.802;2023-06-10T18:14:30;1.52;;;0.40;;
48088;SDS011;33867;50.314;7.802;2023-06-10T18:17:49;0.15;;;0.15;;
48088;SDS011;33867;50.314;7.802;2023-06-10T18:21:10;0.60;;;0.50;;
48088;SDS011;33867;50.314;7.802;2023-06-10T18:24:29;0.50;;;0.40;;
48088;SDS011;33867;50.314;7.802;2023-06-10T18:27:48;0.50;;;0.43;;
48088;SDS011;33867;50.314;7.802;2023-06-10T18:31:07;0.10;;;0.10;;
48088;SDS011;33867;50.314;7.802;2023-06-10T18:34:27;0.30;;;0.30;;
48088;SDS011;33867;50.314;7.802;2023-06-10T18:37:46;0.28;;;0.25;;
48088;SDS011;33867;50.314;7.802;2023-06-10T18:41:05;0.75;;;0.47;;
48088;SDS011;33867;50.314;7.802;2023-06-10T18:44:25;0.40;;;0.30;;
48088;SDS011;33867;50.314;7.802;2023-06-10T18:47:44;0.30;;;0.25;;
48088;SDS011;33867;50.314;7.802;2023-06-10T18:51:03;0.47;;;0.25;;
48088;SDS011;33867;50.314;7.802;2023-06-10T18:54:22;0.20;;;0.20;;
48088;SDS011;33867;50.314;7.802;2023-06-10T18:57:41;0.40;;;0.38;;
48088;SDS011;33867;50.314;7.802;2023-06-10T19:01:01;1.85;;;0.77;;
48088;SDS011;33867;50.314;7.802;2023-06-10T19:04:22;0.77;;;0.52;;
48088;SDS011;33867;50.314;7.802;2023-06-10T19:07:40;0.47;;;0.40;;
48088;SDS011;33867;50.314;7.802;2023-06-10T19:10:59;0.35;;;0.25;;
48088;SDS011;33867;50.314;7.802;2023-06-10T19:14:18;0.30;;;0.30;;
48088;SDS011;33867;50.314;7.802;2023-06-10T19:17:38;0.40;;;0.40;;
48088;SDS011;33867;50.314;7.802;2023-06-10T19:20:57;0.77;;;0.40;;
48088;SDS011;33867;50.314;7.802;2023-06-10T19:24:16;0.82;;;0.32;;
48088;SDS011;33867;50.314;7.802;2023-06-10T19:27:35;0.47;;;0.40;;
48088;SDS011;33867;50.314;7.802;2023-06-10T19:30:55;0.30;;;0.30;;
48088;SDS011;33867;50.314;7.802;2023-06-10T19:34:14;0.38;;;0.30;;
48088;SDS011;33867;50.314;7.802;2023-06-10T19:37:33;0.22;;;0.20;;
48088;SDS011;33867;50.314;7.802;2023-06-10T19:40:52;0.22;;;0.20;;
48088;SDS011;33867;50.314;7.802;2023-06-10T19:44:11;0.40;;;0.40;;
48088;SDS011;33867;50.314;7.802;2023-06-10T19:47:31;0.40;;;0.40;;
48088;SDS011;33867;50.314;7.802;2023-06-10T19:50:50;0.30;;;0.30;;
48088;SDS011;33867;50.314;7.802;2023-06-10T19:54:09;1.55;;;0.30;;
48088;SDS011;33867;50.314;7.802;2023-06-10T19:57:28;0.20;;;0.20;;
48088;SDS011;33867;50.314;7.802;2023-06-10T20:00:47;0.30;;;0.30;;
48088;SDS011;33867;50.314;7.802;2023-06-10T20:04:06;0.30;;;0.25;;
48088;SDS011;33867;50.314;7.802;2023-06-10T20:07:25;0.32;;;0.30;;
48088;SDS011;33867;50.314;7.802;2023-06-10T20:10:45;0.10;;;0.10;;
48088;SDS011;33867;50.314;7.802;2023-06-10T20:14:04;0.17;;;0.17;;
48088;SDS011;33867;50.314;7.802;2023-06-10T20:17:23;0.10;;;0.10;;
48088;SDS011;33867;50.314;7.802;2023-06-10T20:20:42;0.30;;;0.20;;
48088;SDS011;33867;50.314;7.802;2023-06-10T20:24:03;0.15;;;0.15;;
48088;SDS011;33867;50.314;7.802;2023-06-10T20:27:24;0.82;;;0.30;;
48088;SDS011;33867;50.314;7.802;2023-06-10T20:30:44;0.65;;;0.47;;
48088;SDS011;33867;50.314;7.802;2023-06-10T20:34:03;0.52;;;0.20;;
48088;SDS011;33867;50.314;7.802;2023-06-10T20:37:22;0.68;;;0.50;;
48088;SDS011;33867;50.314;7.802;2023-06-10T20:40:41;1.08;;;0.55;;
48088;SDS011;33867;50.314;7.802;2023-06-10T20:44:00;0.52;;;0.40;;